Hyundai Forward — 3EJY9 — position and weather

sailwx.info

Track history (hours):
 
Tides and Currents Weather Stations Pressure Air Temp Water Temp Dewpoint Dewpoint Depression Visibility Wind Speed Wind Dir Waves Ship Positions

Hyundai Forward

Last reported at 2014-Oct-08 19:33 UTC. Time now 2014-Oct-21 18:31 UTC.
Position N 30°33' E 122°50'.
Warning: this ship's position is 12 days out of date.

Length 294 m; draft 9.7 m.

Type: Ship (hazmat cat A). MMSI: 372652000.

Date/timePositionNaut miles runAvg speedWind from/ knotsBaromVisibWave heightAir tempDewpointWater temp
2014-Oct-08 19:33N 30°33' E 122°50'1514.5
2014-Oct-08 18:33N 30°32' E 122°33'1515.1
2014-Oct-08 17:33N 30°33' E 122°16'1110.8
2014-Oct-08 16:33N 30°37' E 122°04'0 0.0
2014-Oct-08 05:27N 30°37' E 122°04'0 0.0
2014-Oct-08 04:23N 30°37' E 122°04'3 3.2
2014-Oct-08 03:33N 30°35' E 122°07'6 6.0
2014-Oct-08 02:33N 30°34' E 122°13'10 9.9
2014-Oct-08 01:33N 30°33' E 122°25'1212.3
2014-Oct-08 00:34N 30°30' E 122°38'1414.0
2014-Oct-07 23:33N 30°23' E 122°53'3712.2
2014-Oct-07 20:33N 29°48' E 122°38'1312.8
2014-Oct-07 19:33N 29°42' E 122°25'1313.3
2014-Oct-07 18:33N 29°50' E 122°13'1111.0
2014-Oct-07 17:33N 29°46' E 122°01'1 0.5
2014-Oct-07 16:11N 29°46' E 122°00'0 0.0
2014-Oct-07 11:29N 29°46' E 122°00'0 0.0
2014-Oct-07 10:29N 29°46' E 122°00'0 0.0
2014-Oct-07 06:20N 29°46' E 122°00'2 2.1
2014-Oct-07 05:32N 29°47' E 122°02'10 9.8
2014-Oct-07 04:34N 29°51' E 122°12'10 9.8
2014-Oct-07 03:32N 29°44' E 122°21'1211.9
2014-Oct-07 02:33N 29°43' E 122°34'4 3.7
2014-Oct-07 01:22N 29°38' E 122°35'1 1.0
2014-Oct-07 00:23N 29°39' E 122°36'1 1.4
2014-Oct-06 23:33N 29°38' E 122°36'2014.4
2014-Oct-06 22:10N 29°18' E 122°36'915.0
2014-Oct-06 21:33N 29°09' E 122°34'39714.6
2014-Oct-05 18:23N 22°57' E 119°57'1517.8
2014-Oct-05 17:33N 22°44' E 120°05'1515.1
2014-Oct-05 16:34N 22°33' E 120°15'3 3.0
2014-Oct-05 15:28N 22°34' E 120°19'0 0.0
2014-Oct-05 14:33N 22°34' E 120°19'0 0.0
2014-Oct-05 13:33N 22°34' E 120°19'0 0.0
2014-Oct-05 12:33N 22°34' E 120°19'0 0.0
2014-Oct-05 11:33N 22°34' E 120°19'0 0.0
2014-Oct-05 10:33N 22°34' E 120°19'0 0.0
2014-Oct-05 09:33N 22°34' E 120°19'0 0.0
2014-Oct-05 08:33N 22°34' E 120°19'0 0.0
2014-Oct-05 07:33N 22°34' E 120°19'0 0.0
2014-Oct-05 06:33N 22°34' E 120°19'0 0.0
2014-Oct-05 05:33N 22°34' E 120°19'0 0.0
2014-Oct-05 04:33N 22°34' E 120°19'0 0.0
2014-Oct-05 03:33N 22°34' E 120°19'0 0.0
2014-Oct-05 02:33N 22°34' E 120°19'0 0.0
2014-Oct-05 01:32N 22°34' E 120°19'0 0.2
2014-Oct-05 00:33N 22°34' E 120°19'5 5.5
2014-Oct-04 23:33N 22°32' E 120°13'1111.3
2014-Oct-04 22:33N 22°40' E 120°06'  
Track history (hours):
 
Tides and Currents Weather Stations Pressure Air Temp Water Temp Dewpoint Dewpoint Depression Visibility Wind Speed Wind Dir Waves Ship Positions

Hyundai Forward

Last reported at 2014-Oct-08 19:33 UTC. Time now 2014-Oct-21 18:31 UTC.
Position N 30°33' E 122°50'.
Warning: this ship's position is 12 days out of date.

Length 294 m; draft 9.7 m.

Type: Ship (hazmat cat A). MMSI: 372652000.

Date/timePositionNaut miles runAvg speedWind from/ knotsBaromVisibWave heightAir tempDewpointWater temp
2014-Oct-08 19:33N 30°33' E 122°50'1514.5
2014-Oct-08 18:33N 30°32' E 122°33'1515.1
2014-Oct-08 17:33N 30°33' E 122°16'1110.8
2014-Oct-08 16:33N 30°37' E 122°04'0 0.0
2014-Oct-08 05:27N 30°37' E 122°04'0 0.0
2014-Oct-08 04:23N 30°37' E 122°04'3 3.2
2014-Oct-08 03:33N 30°35' E 122°07'6 6.0
2014-Oct-08 02:33N 30°34' E 122°13'10 9.9
2014-Oct-08 01:33N 30°33' E 122°25'1212.3
2014-Oct-08 00:34N 30°30' E 122°38'1414.0
2014-Oct-07 23:33N 30°23' E 122°53'3712.2
2014-Oct-07 20:33N 29°48' E 122°38'1312.8
2014-Oct-07 19:33N 29°42' E 122°25'1313.3
2014-Oct-07 18:33N 29°50' E 122°13'1111.0
2014-Oct-07 17:33N 29°46' E 122°01'1 0.5
2014-Oct-07 16:11N 29°46' E 122°00'0 0.0
2014-Oct-07 11:29N 29°46' E 122°00'0 0.0
2014-Oct-07 10:29N 29°46' E 122°00'0 0.0
2014-Oct-07 06:20N 29°46' E 122°00'2 2.1
2014-Oct-07 05:32N 29°47' E 122°02'10 9.8
2014-Oct-07 04:34N 29°51' E 122°12'10 9.8
2014-Oct-07 03:32N 29°44' E 122°21'1211.9
2014-Oct-07 02:33N 29°43' E 122°34'4 3.7
2014-Oct-07 01:22N 29°38' E 122°35'1 1.0
2014-Oct-07 00:23N 29°39' E 122°36'1 1.4
2014-Oct-06 23:33N 29°38' E 122°36'2014.4
2014-Oct-06 22:10N 29°18' E 122°36'915.0
2014-Oct-06 21:33N 29°09' E 122°34'39714.6
2014-Oct-05 18:23N 22°57' E 119°57'1517.8
2014-Oct-05 17:33N 22°44' E 120°05'1515.1
2014-Oct-05 16:34N 22°33' E 120°15'3 3.0
2014-Oct-05 15:28N 22°34' E 120°19'0 0.0
2014-Oct-05 14:33N 22°34' E 120°19'0 0.0
2014-Oct-05 13:33N 22°34' E 120°19'0 0.0
2014-Oct-05 12:33N 22°34' E 120°19'0 0.0
2014-Oct-05 11:33N 22°34' E 120°19'0 0.0
2014-Oct-05 10:33N 22°34' E 120°19'0 0.0
2014-Oct-05 09:33N 22°34' E 120°19'0 0.0
2014-Oct-05 08:33N 22°34' E 120°19'0 0.0
2014-Oct-05 07:33N 22°34' E 120°19'0 0.0
2014-Oct-05 06:33N 22°34' E 120°19'0 0.0
2014-Oct-05 05:33N 22°34' E 120°19'0 0.0
2014-Oct-05 04:33N 22°34' E 120°19'0 0.0
2014-Oct-05 03:33N 22°34' E 120°19'0 0.0
2014-Oct-05 02:33N 22°34' E 120°19'0 0.0
2014-Oct-05 01:32N 22°34' E 120°19'0 0.2
2014-Oct-05 00:33N 22°34' E 120°19'5 5.5
2014-Oct-04 23:33N 22°32' E 120°13'1111.3
2014-Oct-04 22:33N 22°40' E 120°06'  

Dump ship's entire track history